sensor_id;sensor_type;location;lat;lon;timestamp;temperature;humidity
3816;DHT22;1923;48.154;11.536;2022-10-31T00:01:33;14.40;99.90
3816;DHT22;1923;48.154;11.536;2022-10-31T00:04:02;14.40;99.90
3816;DHT22;1923;48.154;11.536;2022-10-31T00:06:30;14.30;99.90
3816;DHT22;1923;48.154;11.536;2022-10-31T00:09:01;14.30;99.90
3816;DHT22;1923;48.154;11.536;2022-10-31T00:11:29;14.30;99.90
3816;DHT22;1923;48.154;11.536;2022-10-31T00:13:58;14.30;99.90
3816;DHT22;1923;48.154;11.536;2022-10-31T00:16:27;14.20;99.90
3816;DHT22;1923;48.154;11.536;2022-10-31T00:18:57;14.20;99.90
3816;DHT22;1923;48.154;11.536;2022-10-31T00:21:26;14.10;99.90
3816;DHT22;1923;48.154;11.536;2022-10-31T00:23:54;14.00;99.90
3816;DHT22;1923;48.154;11.536;2022-10-31T00:26:23;14.00;99.90
3816;DHT22;1923;48.154;11.536;2022-10-31T00:28:51;14.10;99.90
3816;DHT22;1923;48.154;11.536;2022-10-31T00:31:19;14.10;99.90
3816;DHT22;1923;48.154;11.536;2022-10-31T00:33:47;14.10;99.90
3816;DHT22;1923;48.154;11.536;2022-10-31T00:36:17;14.00;99.90
3816;DHT22;1923;48.154;11.536;2022-10-31T00:38:46;14.00;99.90
3816;DHT22;1923;48.154;11.536;2022-10-31T00:41:16;14.00;99.90
3816;DHT22;1923;48.154;11.536;2022-10-31T00:43:46;14.00;99.90
3816;DHT22;1923;48.154;11.536;2022-10-31T00:46:14;14.00;99.90
3816;DHT22;1923;48.154;11.536;2022-10-31T00:48:42;14.00;99.90
3816;DHT22;1923;48.154;11.536;2022-10-31T00:51:10;14.00;99.90
3816;DHT22;1923;48.154;11.536;2022-10-31T00:53:38;13.90;99.90
3816;DHT22;1923;48.154;11.536;2022-10-31T00:56:07;13.90;99.90
3816;DHT22;1923;48.154;11.536;2022-10-31T00:58:35;13.90;99.90
3816;DHT22;1923;48.154;11.536;2022-10-31T01:01:04;14.00;99.90
3816;DHT22;1923;48.154;11.536;2022-10-31T01:03:33;13.90;99.90
3816;DHT22;1923;48.154;11.536;2022-10-31T01:06:03;13.90;99.90
3816;DHT22;1923;48.154;11.536;2022-10-31T01:08:32;13.90;99.90
3816;DHT22;1923;48.154;11.536;2022-10-31T01:11:02;13.90;99.90
3816;DHT22;1923;48.154;11.536;2022-10-31T01:13:30;14.00;99.90
3816;DHT22;1923;48.154;11.536;2022-10-31T01:15:59;13.90;99.90
3816;DHT22;1923;48.154;11.536;2022-10-31T01:18:29;13.80;99.90
3816;DHT22;1923;48.154;11.536;2022-10-31T01:20:59;13.90;99.90
3816;DHT22;1923;48.154;11.536;2022-10-31T01:23:27;13.70;99.90
3816;DHT22;1923;48.154;11.536;2022-10-31T01:26:05;13.70;99.90
3816;DHT22;1923;48.154;11.536;2022-10-31T01:28:33;13.70;99.90
3816;DHT22;1923;48.154;11.536;2022-10-31T01:31:03;13.70;99.90
3816;DHT22;1923;48.154;11.536;2022-10-31T01:33:33;13.70;99.90
3816;DHT22;1923;48.154;11.536;2022-10-31T01:36:10;13.80;99.90
3816;DHT22;1923;48.154;11.536;2022-10-31T01:38:38;13.70;99.90
3816;DHT22;1923;48.154;11.536;2022-10-31T01:41:06;13.60;99.90
3816;DHT22;1923;48.154;11.536;2022-10-31T01:43:45;13.60;99.90
3816;DHT22;1923;48.154;11.536;2022-10-31T01:46:14;13.60;99.90
3816;DHT22;1923;48.154;11.536;2022-10-31T01:48:44;13.60;99.90
3816;DHT22;1923;48.154;11.536;2022-10-31T01:51:14;13.60;99.90
3816;DHT22;1923;48.154;11.536;2022-10-31T01:53:43;13.60;99.90
3816;DHT22;1923;48.154;11.536;2022-10-31T01:56:13;13.60;99.90
3816;DHT22;1923;48.154;11.536;2022-10-31T01:58:42;13.50;99.90
3816;DHT22;1923;48.154;11.536;2022-10-31T02:01:13;13.50;99.90
3816;DHT22;1923;48.154;11.536;2022-10-31T02:03:42;13.50;99.90
3816;DHT22;1923;48.154;11.536;2022-10-31T02:06:20;13.50;99.90
3816;DHT22;1923;48.154;11.536;2022-10-31T02:08:49;13.40;99.90
3816;DHT22;1923;48.154;11.536;2022-10-31T02:11:18;13.30;99.90
3816;DHT22;1923;48.154;11.536;2022-10-31T02:13:47;13.40;99.90
3816;DHT22;1923;48.154;11.536;2022-10-31T02:16:15;13.30;99.90
3816;DHT22;1923;48.154;11.536;2022-10-31T02:18:43;13.30;99.90
3816;DHT22;1923;48.154;11.536;2022-10-31T02:21:16;13.30;99.90
3816;DHT22;1923;48.154;11.536;2022-10-31T02:27:20;13.20;99.90
3816;DHT22;1923;48.154;11.536;2022-10-31T02:30:05;13.20;99.90
3816;DHT22;1923;48.154;11.536;2022-10-31T02:35:37;13.00;99.90
3816;DHT22;1923;48.154;11.536;2022-10-31T02:38:14;13.00;99.90
3816;DHT22;1923;48.154;11.536;2022-10-31T02:40:52;13.00;99.90
3816;DHT22;1923;48.154;11.536;2022-10-31T02:43:26;13.00;99.90
3816;DHT22;1923;48.154;11.536;2022-10-31T02:45:58;13.10;99.90
3816;DHT22;1923;48.154;11.536;2022-10-31T02:48:33;13.10;99.90
3816;DHT22;1923;48.154;11.536;2022-10-31T02:51:03;13.00;99.90
3816;DHT22;1923;48.154;11.536;2022-10-31T02:53:32;13.00;99.90
3816;DHT22;1923;48.154;11.536;2022-10-31T02:56:04;13.00;99.90
3816;DHT22;1923;48.154;11.536;2022-10-31T02:58:36;12.90;99.90
3816;DHT22;1923;48.154;11.536;2022-10-31T03:01:31;13.00;99.90
3816;DHT22;1923;48.154;11.536;2022-10-31T03:04:16;13.00;99.90
3816;DHT22;1923;48.154;11.536;2022-10-31T03:06:54;13.10;99.90
3816;DHT22;1923;48.154;11.536;2022-10-31T03:09:26;13.10;99.90
3816;DHT22;1923;48.154;11.536;2022-10-31T03:11:58;13.00;99.90
3816;DHT22;1923;48.154;11.536;2022-10-31T03:14:38;13.00;99.90
3816;DHT22;1923;48.154;11.536;2022-10-31T03:17:14;12.90;99.90
3816;DHT22;1923;48.154;11.536;2022-10-31T03:19:48;12.90;99.90
3816;DHT22;1923;48.154;11.536;2022-10-31T03:22:20;12.80;99.90
3816;DHT22;1923;48.154;11.536;2022-10-31T03:24:50;12.90;99.90
3816;DHT22;1923;48.154;11.536;2022-10-31T03:27:23;12.90;99.90
3816;DHT22;1923;48.154;11.536;2022-10-31T03:29:54;12.80;99.90
3816;DHT22;1923;48.154;11.536;2022-10-31T03:32:25;12.80;99.90
3816;DHT22;1923;48.154;11.536;2022-10-31T03:34:59;12.80;99.90
3816;DHT22;1923;48.154;11.536;2022-10-31T03:37:31;12.80;99.90
3816;DHT22;1923;48.154;11.536;2022-10-31T03:40:01;12.70;99.90
3816;DHT22;1923;48.154;11.536;2022-10-31T03:42:32;12.80;99.90
3816;DHT22;1923;48.154;11.536;2022-10-31T03:45:05;12.80;99.90
3816;DHT22;1923;48.154;11.536;2022-10-31T03:47:36;12.70;99.90
3816;DHT22;1923;48.154;11.536;2022-10-31T03:50:07;12.70;99.90
3816;DHT22;1923;48.154;11.536;2022-10-31T03:52:41;12.60;99.90
3816;DHT22;1923;48.154;11.536;2022-10-31T03:55:15;12.70;99.90
3816;DHT22;1923;48.154;11.536;2022-10-31T03:57:48;12.70;99.90
3816;DHT22;1923;48.154;11.536;2022-10-31T04:00:19;12.70;99.90
3816;DHT22;1923;48.154;11.536;2022-10-31T04:02:53;12.70;99.90
3816;DHT22;1923;48.154;11.536;2022-10-31T04:05:25;12.70;99.90
3816;DHT22;1923;48.154;11.536;2022-10-31T04:07:55;12.70;99.90
3816;DHT22;1923;48.154;11.536;2022-10-31T04:10:26;12.70;99.90
3816;DHT22;1923;48.154;11.536;2022-10-31T04:13:02;12.70;99.90
3816;DHT22;1923;48.154;11.536;2022-10-31T04:15:31;12.70;99.90
3816;DHT22;1923;48.154;11.536;2022-10-31T04:18:00;12.60;99.90
3816;DHT22;1923;48.154;11.536;2022-10-31T04:20:32;12.60;99.90
3816;DHT22;1923;48.154;11.536;2022-10-31T04:23:00;12.60;99.90
3816;DHT22;1923;48.154;11.536;2022-10-31T04:25:28;12.60;99.90
3816;DHT22;1923;48.154;11.536;2022-10-31T04:27:56;12.60;99.90
3816;DHT22;1923;48.154;11.536;2022-10-31T04:30:25;12.60;99.90
3816;DHT22;1923;48.154;11.536;2022-10-31T04:32:52;12.60;99.90
3816;DHT22;1923;48.154;11.536;2022-10-31T04:35:21;12.50;99.90
3816;DHT22;1923;48.154;11.536;2022-10-31T04:37:50;12.60;99.90
3816;DHT22;1923;48.154;11.536;2022-10-31T04:40:18;12.50;99.90
3816;DHT22;1923;48.154;11.536;2022-10-31T04:42:46;12.60;99.90
3816;DHT22;1923;48.154;11.536;2022-10-31T04:45:15;12.60;99.90
3816;DHT22;1923;48.154;11.536;2022-10-31T04:47:47;12.60;99.90
3816;DHT22;1923;48.154;11.536;2022-10-31T04:50:15;12.60;99.90
3816;DHT22;1923;48.154;11.536;2022-10-31T04:52:44;12.60;99.90
3816;DHT22;1923;48.154;11.536;2022-10-31T04:55:14;12.60;99.90
3816;DHT22;1923;48.154;11.536;2022-10-31T04:57:42;12.60;99.90
3816;DHT22;1923;48.154;11.536;2022-10-31T05:00:11;12.60;99.90
3816;DHT22;1923;48.154;11.536;2022-10-31T05:02:43;12.60;99.90
3816;DHT22;1923;48.154;11.536;2022-10-31T05:05:12;12.60;99.90
3816;DHT22;1923;48.154;11.536;2022-10-31T05:07:40;12.60;99.90
3816;DHT22;1923;48.154;11.536;2022-10-31T05:10:09;12.60;99.90
3816;DHT22;1923;48.154;11.536;2022-10-31T05:12:45;12.50;99.90
3816;DHT22;1923;48.154;11.536;2022-10-31T05:15:14;12.50;99.90
3816;DHT22;1923;48.154;11.536;2022-10-31T05:17:43;12.50;99.90
3816;DHT22;1923;48.154;11.536;2022-10-31T05:20:11;12.50;99.90
3816;DHT22;1923;48.154;11.536;2022-10-31T05:22:42;12.40;99.90
3816;DHT22;1923;48.154;11.536;2022-10-31T05:25:11;12.40;99.90
3816;DHT22;1923;48.154;11.536;2022-10-31T05:27:41;12.40;99.90
3816;DHT22;1923;48.154;11.536;2022-10-31T05:30:11;12.40;99.90
3816;DHT22;1923;48.154;11.536;2022-10-31T05:32:40;12.30;99.90
3816;DHT22;1923;48.154;11.536;2022-10-31T05:35:11;12.40;99.90
3816;DHT22;1923;48.154;11.536;2022-10-31T05:37:39;12.40;99.90
3816;DHT22;1923;48.154;11.536;2022-10-31T05:40:10;12.40;99.90
3816;DHT22;1923;48.154;11.536;2022-10-31T05:42:38;12.30;99.90
3816;DHT22;1923;48.154;11.536;2022-10-31T05:45:09;12.30;99.90
3816;DHT22;1923;48.154;11.536;2022-10-31T05:47:37;12.30;99.90
3816;DHT22;1923;48.154;11.536;2022-10-31T05:50:06;12.30;99.90
3816;DHT22;1923;48.154;11.536;2022-10-31T05:52:35;12.30;99.90
3816;DHT22;1923;48.154;11.536;2022-10-31T05:55:03;12.30;99.90
3816;DHT22;1923;48.154;11.536;2022-10-31T05:57:32;12.30;99.90
3816;DHT22;1923;48.154;11.536;2022-10-31T06:00:01;12.30;99.90
3816;DHT22;1923;48.154;11.536;2022-10-31T06:02:30;12.30;99.90
3816;DHT22;1923;48.154;11.536;2022-10-31T06:05:01;12.30;99.90
3816;DHT22;1923;48.154;11.536;2022-10-31T06:07:32;12.40;99.90
3816;DHT22;1923;48.154;11.536;2022-10-31T06:10:01;12.40;99.90
3816;DHT22;1923;48.154;11.536;2022-10-31T06:12:29;12.40;99.90
3816;DHT22;1923;48.154;11.536;2022-10-31T06:14:58;12.40;99.90
3816;DHT22;1923;48.154;11.536;2022-10-31T06:17:26;12.40;99.90
3816;DHT22;1923;48.154;11.536;2022-10-31T06:19:55;12.50;99.90
3816;DHT22;1923;48.154;11.536;2022-10-31T06:22:23;12.50;99.90
3816;DHT22;1923;48.154;11.536;2022-10-31T06:24:51;12.50;99.90
3816;DHT22;1923;48.154;11.536;2022-10-31T06:27:19;12.60;99.90
3816;DHT22;1923;48.154;11.536;2022-10-31T06:29:47;12.60;99.90
3816;DHT22;1923;48.154;11.536;2022-10-31T06:32:15;12.60;99.90
3816;DHT22;1923;48.154;11.536;2022-10-31T06:34:44;12.60;99.90
3816;DHT22;1923;48.154;11.536;2022-10-31T06:37:16;12.80;99.90
3816;DHT22;1923;48.154;11.536;2022-10-31T06:39:44;12.80;99.90
3816;DHT22;1923;48.154;11.536;2022-10-31T06:42:12;12.80;99.90
3816;DHT22;1923;48.154;11.536;2022-10-31T06:44:40;12.90;99.90
3816;DHT22;1923;48.154;11.536;2022-10-31T06:47:08;13.00;99.90
3816;DHT22;1923;48.154;11.536;2022-10-31T06:49:36;13.10;99.90
3816;DHT22;1923;48.154;11.536;2022-10-31T06:52:04;13.10;99.90
3816;DHT22;1923;48.154;11.536;2022-10-31T06:54:34;13.30;99.90
3816;DHT22;1923;48.154;11.536;2022-10-31T06:57:02;13.50;99.90
3816;DHT22;1923;48.154;11.536;2022-10-31T06:59:30;13.90;99.90
3816;DHT22;1923;48.154;11.536;2022-10-31T07:01:58;14.60;99.90
3816;DHT22;1923;48.154;11.536;2022-10-31T07:04:26;15.40;99.90
3816;DHT22;1923;48.154;11.536;2022-10-31T07:06:54;16.20;99.90
3816;DHT22;1923;48.154;11.536;2022-10-31T07:09:22;17.20;99.90
3816;DHT22;1923;48.154;11.536;2022-10-31T07:11:53;18.00;99.90
3816;DHT22;1923;48.154;11.536;2022-10-31T07:14:21;18.50;99.90
3816;DHT22;1923;48.154;11.536;2022-10-31T07:16:49;19.20;99.90
3816;DHT22;1923;48.154;11.536;2022-10-31T07:19:18;19.70;99.90
3816;DHT22;1923;48.154;11.536;2022-10-31T07:21:45;20.30;99.90
3816;DHT22;1923;48.154;11.536;2022-10-31T07:24:13;20.60;99.90
3816;DHT22;1923;48.154;11.536;2022-10-31T07:26:41;20.50;99.90
3816;DHT22;1923;48.154;11.536;2022-10-31T07:29:11;20.70;99.90
3816;DHT22;1923;48.154;11.536;2022-10-31T07:31:39;20.70;99.90
3816;DHT22;1923;48.154;11.536;2022-10-31T07:34:07;20.60;99.90
3816;DHT22;1923;48.154;11.536;2022-10-31T07:36:35;20.80;99.90
3816;DHT22;1923;48.154;11.536;2022-10-31T07:39:03;21.40;99.90
3816;DHT22;1923;48.154;11.536;2022-10-31T07:41:31;21.90;99.90
3816;DHT22;1923;48.154;11.536;2022-10-31T07:43:59;22.10;99.90
3816;DHT22;1923;48.154;11.536;2022-10-31T07:46:29;21.90;99.90
3816;DHT22;1923;48.154;11.536;2022-10-31T07:48:56;21.50;99.90
3816;DHT22;1923;48.154;11.536;2022-10-31T07:51:24;21.80;99.90
3816;DHT22;1923;48.154;11.536;2022-10-31T07:53:53;21.90;99.90
3816;DHT22;1923;48.154;11.536;2022-10-31T07:56:21;21.90;99.90
3816;DHT22;1923;48.154;11.536;2022-10-31T07:58:48;21.90;99.90
3816;DHT22;1923;48.154;11.536;2022-10-31T08:01:16;21.40;99.90
3816;DHT22;1923;48.154;11.536;2022-10-31T08:03:46;20.80;99.90
3816;DHT22;1923;48.154;11.536;2022-10-31T08:06:14;20.60;99.90
3816;DHT22;1923;48.154;11.536;2022-10-31T08:08:42;20.70;99.90
3816;DHT22;1923;48.154;11.536;2022-10-31T08:11:10;21.30;99.90
3816;DHT22;1923;48.154;11.536;2022-10-31T08:13:37;22.20;99.90
3816;DHT22;1923;48.154;11.536;2022-10-31T08:16:06;23.30;99.90
3816;DHT22;1923;48.154;11.536;2022-10-31T08:18:34;24.40;99.90
3816;DHT22;1923;48.154;11.536;2022-10-31T08:21:05;25.20;99.90
3816;DHT22;1923;48.154;11.536;2022-10-31T08:23:33;25.90;99.90
3816;DHT22;1923;48.154;11.536;2022-10-31T08:26:01;26.00;99.70
3816;DHT22;1923;48.154;11.536;2022-10-31T08:28:29;26.00;99.80
3816;DHT22;1923;48.154;11.536;2022-10-31T08:30:58;25.90;99.10
3816;DHT22;1923;48.154;11.536;2022-10-31T08:33:25;25.90;98.90
3816;DHT22;1923;48.154;11.536;2022-10-31T08:35:53;26.10;98.70
3816;DHT22;1923;48.154;11.536;2022-10-31T08:38:23;26.30;98.20
3816;DHT22;1923;48.154;11.536;2022-10-31T08:40:51;26.00;97.80
3816;DHT22;1923;48.154;11.536;2022-10-31T08:43:19;25.60;98.90
3816;DHT22;1923;48.154;11.536;2022-10-31T08:45:48;25.10;99.90
3816;DHT22;1923;48.154;11.536;2022-10-31T08:48:17;24.70;99.90
3816;DHT22;1923;48.154;11.536;2022-10-31T08:50:45;24.80;99.90
3816;DHT22;1923;48.154;11.536;2022-10-31T08:53:15;24.60;99.90
3816;DHT22;1923;48.154;11.536;2022-10-31T08:55:46;24.80;99.90
3816;DHT22;1923;48.154;11.536;2022-10-31T08:58:15;24.90;99.90
3816;DHT22;1923;48.154;11.536;2022-10-31T09:00:44;24.30;99.90
3816;DHT22;1923;48.154;11.536;2022-10-31T09:03:13;23.70;99.90
3816;DHT22;1923;48.154;11.536;2022-10-31T09:05:42;23.10;99.90
3816;DHT22;1923;48.154;11.536;2022-10-31T09:08:10;23.30;99.90
3816;DHT22;1923;48.154;11.536;2022-10-31T09:10:44;23.20;99.90
3816;DHT22;1923;48.154;11.536;2022-10-31T09:13:13;23.20;99.90
3816;DHT22;1923;48.154;11.536;2022-10-31T09:15:44;23.20;99.90
3816;DHT22;1923;48.154;11.536;2022-10-31T09:18:13;23.20;99.90
3816;DHT22;1923;48.154;11.536;2022-10-31T09:20:43;22.90;99.90
3816;DHT22;1923;48.154;11.536;2022-10-31T09:23:12;22.80;99.90
3816;DHT22;1923;48.154;11.536;2022-10-31T09:25:41;23.20;99.90
3816;DHT22;1923;48.154;11.536;2022-10-31T09:28:18;24.10;99.90
3816;DHT22;1923;48.154;11.536;2022-10-31T09:30:47;24.40;99.90
3816;DHT22;1923;48.154;11.536;2022-10-31T09:33:16;24.30;99.90
3816;DHT22;1923;48.154;11.536;2022-10-31T09:35:44;24.70;99.90
3816;DHT22;1923;48.154;11.536;2022-10-31T09:38:13;25.00;99.90
3816;DHT22;1923;48.154;11.536;2022-10-31T09:40:43;25.30;99.90
3816;DHT22;1923;48.154;11.536;2022-10-31T09:43:18;25.40;99.90
3816;DHT22;1923;48.154;11.536;2022-10-31T09:45:56;25.20;99.80
3816;DHT22;1923;48.154;11.536;2022-10-31T09:48:48;25.10;99.70
3816;DHT22;1923;48.154;11.536;2022-10-31T09:51:20;24.70;99.70
3816;DHT22;1923;48.154;11.536;2022-10-31T09:53:53;24.50;99.90
3816;DHT22;1923;48.154;11.536;2022-10-31T09:56:23;24.30;99.90
3816;DHT22;1923;48.154;11.536;2022-10-31T09:58:56;24.10;99.90
3816;DHT22;1923;48.154;11.536;2022-10-31T10:01:38;23.30;99.90
3816;DHT22;1923;48.154;11.536;2022-10-31T10:04:20;23.00;99.90
3816;DHT22;1923;48.154;11.536;2022-10-31T10:06:52;23.00;99.90
3816;DHT22;1923;48.154;11.536;2022-10-31T10:09:24;23.00;99.90
3816;DHT22;1923;48.154;11.536;2022-10-31T10:12:01;22.90;99.80
3816;DHT22;1923;48.154;11.536;2022-10-31T10:14:48;22.80;99.80
3816;DHT22;1923;48.154;11.536;2022-10-31T10:17:25;23.00;99.50
3816;DHT22;1923;48.154;11.536;2022-10-31T10:20:25;22.90;99.70
3816;DHT22;1923;48.154;11.536;2022-10-31T10:23:03;22.80;99.90
3816;DHT22;1923;48.154;11.536;2022-10-31T10:25:38;23.00;99.90
3816;DHT22;1923;48.154;11.536;2022-10-31T10:28:15;23.00;99.90
3816;DHT22;1923;48.154;11.536;2022-10-31T10:30:48;23.50;99.90
3816;DHT22;1923;48.154;11.536;2022-10-31T10:33:20;23.90;99.30
3816;DHT22;1923;48.154;11.536;2022-10-31T10:35:52;24.10;98.70
3816;DHT22;1923;48.154;11.536;2022-10-31T10:38:25;24.00;98.30
3816;DHT22;1923;48.154;11.536;2022-10-31T10:40:58;24.00;98.60
3816;DHT22;1923;48.154;11.536;2022-10-31T10:43:32;23.90;98.80
3816;DHT22;1923;48.154;11.536;2022-10-31T10:46:16;23.60;98.30
3816;DHT22;1923;48.154;11.536;2022-10-31T10:49:11;23.70;97.80
3816;DHT22;1923;48.154;11.536;2022-10-31T10:51:43;23.40;97.90
3816;DHT22;1923;48.154;11.536;2022-10-31T10:54:50;23.40;98.00
3816;DHT22;1923;48.154;11.536;2022-10-31T10:57:44;22.90;98.50
3816;DHT22;1923;48.154;11.536;2022-10-31T11:00:19;22.70;98.80
3816;DHT22;1923;48.154;11.536;2022-10-31T11:02:49;22.60;99.00
3816;DHT22;1923;48.154;11.536;2022-10-31T11:05:33;22.40;99.50
3816;DHT22;1923;48.154;11.536;2022-10-31T11:08:02;22.40;99.70
3816;DHT22;1923;48.154;11.536;2022-10-31T11:10:30;22.00;99.80
3816;DHT22;1923;48.154;11.536;2022-10-31T11:13:05;22.00;99.70
3816;DHT22;1923;48.154;11.536;2022-10-31T11:15:38;21.60;99.90
3816;DHT22;1923;48.154;11.536;2022-10-31T11:18:21;21.60;99.80
3816;DHT22;1923;48.154;11.536;2022-10-31T11:20:52;21.70;99.60
3816;DHT22;1923;48.154;11.536;2022-10-31T11:23:22;21.50;99.80
3816;DHT22;1923;48.154;11.536;2022-10-31T11:25:54;21.40;99.80
3816;DHT22;1923;48.154;11.536;2022-10-31T11:28:25;21.50;99.90
3816;DHT22;1923;48.154;11.536;2022-10-31T11:30:57;21.60;99.90
3816;DHT22;1923;48.154;11.536;2022-10-31T11:33:30;21.70;99.90
3816;DHT22;1923;48.154;11.536;2022-10-31T11:36:00;21.80;99.90
3816;DHT22;1923;48.154;11.536;2022-10-31T11:38:33;21.60;99.90
3816;DHT22;1923;48.154;11.536;2022-10-31T11:41:09;21.80;99.90
3816;DHT22;1923;48.154;11.536;2022-10-31T11:43:39;21.80;99.90
3816;DHT22;1923;48.154;11.536;2022-10-31T11:46:09;21.80;99.90
3816;DHT22;1923;48.154;11.536;2022-10-31T11:48:39;21.80;99.90
3816;DHT22;1923;48.154;11.536;2022-10-31T11:51:07;21.70;99.80
3816;DHT22;1923;48.154;11.536;2022-10-31T11:53:35;21.70;99.90
3816;DHT22;1923;48.154;11.536;2022-10-31T11:56:09;21.70;99.80
3816;DHT22;1923;48.154;11.536;2022-10-31T11:58:38;21.70;99.30
3816;DHT22;1923;48.154;11.536;2022-10-31T12:01:24;21.50;99.70
3816;DHT22;1923;48.154;11.536;2022-10-31T12:04:03;21.40;99.60
3816;DHT22;1923;48.154;11.536;2022-10-31T12:06:34;21.30;99.70
3816;DHT22;1923;48.154;11.536;2022-10-31T12:09:14;21.40;99.30
3816;DHT22;1923;48.154;11.536;2022-10-31T12:11:52;21.50;99.80
3816;DHT22;1923;48.154;11.536;2022-10-31T12:14:30;21.70;99.70
3816;DHT22;1923;48.154;11.536;2022-10-31T12:17:05;21.80;99.70
3816;DHT22;1923;48.154;11.536;2022-10-31T12:19:42;21.80;99.90
3816;DHT22;1923;48.154;11.536;2022-10-31T12:22:16;21.30;99.90
3816;DHT22;1923;48.154;11.536;2022-10-31T12:25:14;21.30;99.90
3816;DHT22;1923;48.154;11.536;2022-10-31T12:28:03;21.10;99.90
3816;DHT22;1923;48.154;11.536;2022-10-31T12:30:43;21.00;99.90
3816;DHT22;1923;48.154;11.536;2022-10-31T12:33:27;20.90;99.90
3816;DHT22;1923;48.154;11.536;2022-10-31T12:36:20;21.00;99.90
3816;DHT22;1923;48.154;11.536;2022-10-31T12:39:00;21.00;99.90
3816;DHT22;1923;48.154;11.536;2022-10-31T12:41:44;21.00;99.90
3816;DHT22;1923;48.154;11.536;2022-10-31T12:44:36;21.00;99.90
3816;DHT22;1923;48.154;11.536;2022-10-31T12:47:25;21.30;99.90
3816;DHT22;1923;48.154;11.536;2022-10-31T12:50:06;21.40;99.90
3816;DHT22;1923;48.154;11.536;2022-10-31T12:52:46;21.40;99.90
3816;DHT22;1923;48.154;11.536;2022-10-31T12:55:35;21.50;99.90
3816;DHT22;1923;48.154;11.536;2022-10-31T12:58:09;21.40;99.90
3816;DHT22;1923;48.154;11.536;2022-10-31T13:00:42;21.40;99.90
3816;DHT22;1923;48.154;11.536;2022-10-31T13:03:20;21.30;99.90
3816;DHT22;1923;48.154;11.536;2022-10-31T13:05:53;21.20;99.90
3816;DHT22;1923;48.154;11.536;2022-10-31T13:08:26;21.10;99.90
3816;DHT22;1923;48.154;11.536;2022-10-31T13:11:02;21.30;99.90
3816;DHT22;1923;48.154;11.536;2022-10-31T13:13:36;21.30;99.90
3816;DHT22;1923;48.154;11.536;2022-10-31T13:16:11;21.40;99.90
3816;DHT22;1923;48.154;11.536;2022-10-31T13:18:44;21.20;99.90
3816;DHT22;1923;48.154;11.536;2022-10-31T13:21:18;21.20;99.90
3816;DHT22;1923;48.154;11.536;2022-10-31T13:23:49;21.20;99.90
3816;DHT22;1923;48.154;11.536;2022-10-31T13:26:30;21.30;99.90
3816;DHT22;1923;48.154;11.536;2022-10-31T13:29:03;21.30;99.90
3816;DHT22;1923;48.154;11.536;2022-10-31T13:31:33;21.30;99.90
3816;DHT22;1923;48.154;11.536;2022-10-31T13:34:04;21.30;99.90
3816;DHT22;1923;48.154;11.536;2022-10-31T13:36:36;21.30;99.90
3816;DHT22;1923;48.154;11.536;2022-10-31T13:39:18;21.00;99.90
3816;DHT22;1923;48.154;11.536;2022-10-31T13:41:54;21.00;99.90
3816;DHT22;1923;48.154;11.536;2022-10-31T13:44:26;21.00;99.90
3816;DHT22;1923;48.154;11.536;2022-10-31T13:46:55;20.80;99.90
3816;DHT22;1923;48.154;11.536;2022-10-31T13:49:36;20.90;99.90
3816;DHT22;1923;48.154;11.536;2022-10-31T13:52:15;20.90;99.90
3816;DHT22;1923;48.154;11.536;2022-10-31T13:54:46;21.10;99.90
3816;DHT22;1923;48.154;11.536;2022-10-31T13:57:18;21.00;99.90
3816;DHT22;1923;48.154;11.536;2022-10-31T13:59:51;20.90;99.90
3816;DHT22;1923;48.154;11.536;2022-10-31T14:02:25;21.00;99.90
3816;DHT22;1923;48.154;11.536;2022-10-31T14:04:57;21.10;99.90
3816;DHT22;1923;48.154;11.536;2022-10-31T14:07:28;20.90;99.90
3816;DHT22;1923;48.154;11.536;2022-10-31T14:10:00;20.90;99.90
3816;DHT22;1923;48.154;11.536;2022-10-31T14:12:31;20.90;99.90
3816;DHT22;1923;48.154;11.536;2022-10-31T14:15:04;21.00;99.90
3816;DHT22;1923;48.154;11.536;2022-10-31T14:17:39;21.00;99.90
3816;DHT22;1923;48.154;11.536;2022-10-31T14:20:37;21.00;99.90
3816;DHT22;1923;48.154;11.536;2022-10-31T14:26:31;21.00;99.90
3816;DHT22;1923;48.154;11.536;2022-10-31T14:29:01;21.00;99.90
3816;DHT22;1923;48.154;11.536;2022-10-31T14:31:32;20.90;99.90
3816;DHT22;1923;48.154;11.536;2022-10-31T14:34:18;20.80;99.90
3816;DHT22;1923;48.154;11.536;2022-10-31T14:37:14;20.80;99.90
3816;DHT22;1923;48.154;11.536;2022-10-31T14:39:53;20.60;99.90
3816;DHT22;1923;48.154;11.536;2022-10-31T14:42:39;20.50;99.90
3816;DHT22;1923;48.154;11.536;2022-10-31T14:45:17;20.50;99.90
3816;DHT22;1923;48.154;11.536;2022-10-31T14:47:59;20.40;99.90
3816;DHT22;1923;48.154;11.536;2022-10-31T14:50:41;20.40;99.90
3816;DHT22;1923;48.154;11.536;2022-10-31T14:53:16;20.30;99.90
3816;DHT22;1923;48.154;11.536;2022-10-31T14:55:48;20.40;99.90
3816;DHT22;1923;48.154;11.536;2022-10-31T14:58:21;20.30;99.90
3816;DHT22;1923;48.154;11.536;2022-10-31T15:00:53;20.20;99.90
3816;DHT22;1923;48.154;11.536;2022-10-31T15:03:27;20.20;99.90
3816;DHT22;1923;48.154;11.536;2022-10-31T15:05:58;20.10;99.90
3816;DHT22;1923;48.154;11.536;2022-10-31T15:08:31;20.20;99.90
3816;DHT22;1923;48.154;11.536;2022-10-31T15:11:03;20.10;99.90
3816;DHT22;1923;48.154;11.536;2022-10-31T15:13:43;20.10;99.90
3816;DHT22;1923;48.154;11.536;2022-10-31T15:16:14;20.00;99.90
3816;DHT22;1923;48.154;11.536;2022-10-31T15:18:48;19.80;99.90
3816;DHT22;1923;48.154;11.536;2022-10-31T15:21:18;19.70;99.90
3816;DHT22;1923;48.154;11.536;2022-10-31T15:23:47;19.70;99.90
3816;DHT22;1923;48.154;11.536;2022-10-31T15:26:19;19.80;99.90
3816;DHT22;1923;48.154;11.536;2022-10-31T15:28:59;19.70;99.90
3816;DHT22;1923;48.154;11.536;2022-10-31T15:31:28;19.70;99.90
3816;DHT22;1923;48.154;11.536;2022-10-31T15:34:02;19.40;99.90
3816;DHT22;1923;48.154;11.536;2022-10-31T15:36:31;19.40;99.90
3816;DHT22;1923;48.154;11.536;2022-10-31T15:39:04;19.40;99.90
3816;DHT22;1923;48.154;11.536;2022-10-31T15:41:34;19.40;99.90
3816;DHT22;1923;48.154;11.536;2022-10-31T15:44:11;19.40;99.90
3816;DHT22;1923;48.154;11.536;2022-10-31T15:46:40;19.10;99.90
3816;DHT22;1923;48.154;11.536;2022-10-31T15:49:19;19.20;99.90
3816;DHT22;1923;48.154;11.536;2022-10-31T15:51:49;19.10;99.90
3816;DHT22;1923;48.154;11.536;2022-10-31T15:54:20;19.00;99.90
3816;DHT22;1923;48.154;11.536;2022-10-31T15:56:48;18.90;99.90
3816;DHT22;1923;48.154;11.536;2022-10-31T15:59:21;19.10;99.90
3816;DHT22;1923;48.154;11.536;2022-10-31T16:02:00;19.00;99.90
3816;DHT22;1923;48.154;11.536;2022-10-31T16:04:29;19.00;99.90
3816;DHT22;1923;48.154;11.536;2022-10-31T16:07:00;18.80;99.90
3816;DHT22;1923;48.154;11.536;2022-10-31T16:09:29;18.90;99.90
3816;DHT22;1923;48.154;11.536;2022-10-31T16:11:57;18.70;99.90
3816;DHT22;1923;48.154;11.536;2022-10-31T16:14:29;18.50;99.90
3816;DHT22;1923;48.154;11.536;2022-10-31T16:16:59;18.40;99.90
3816;DHT22;1923;48.154;11.536;2022-10-31T16:19:31;18.40;99.90
3816;DHT22;1923;48.154;11.536;2022-10-31T16:22:05;18.40;99.90
3816;DHT22;1923;48.154;11.536;2022-10-31T16:24:39;18.30;99.90
3816;DHT22;1923;48.154;11.536;2022-10-31T16:27:18;18.30;99.90